Time;durP1;ratioP1;P1;durP2;ratioP2;P2;SDS_P1;SDS_P2;PMS_P1;PMS_P2;Temp;Humidity;BMP_temperature;BMP_pressure;BME280_temperature;BME280_humidity;BME280_pressure;Samples;Min_cycle;Max_cycle;Signal;HPM_P1;HPM_P2
2022/01/05 00:01:07;;;;;;;1.30;0.60;;;3.10;99.90;;;;;;4991985;28;20439;-72
2022/01/05 00:03:33;;;;;;;1.30;0.60;;;3.10;99.90;;;;;;4992678;28;20541;-72
2022/01/05 00:05:58;;;;;;;1.40;0.50;;;3.30;99.90;;;;;;4994350;28;20462;-72
2022/01/05 00:08:25;;;;;;;1.20;0.60;;;3.20;99.90;;;;;;4995427;28;20470;-72
2022/01/05 00:10:52;;;;;;;1.10;0.50;;;3.20;99.90;;;;;;4993596;28;20224;-72
2022/01/05 00:13:18;;;;;;;1.20;0.50;;;3.20;99.90;;;;;;4994486;28;20553;-72
2022/01/05 00:15:43;;;;;;;2.23;0.63;;;3.20;99.90;;;;;;4994617;28;20485;-72
2022/01/05 00:18:09;;;;;;;1.53;0.70;;;3.20;99.90;;;;;;4994240;28;20791;-72
2022/01/05 00:20:35;;;;;;;1.80;0.73;;;3.20;99.90;;;;;;4996659;28;20183;-72
2022/01/05 00:23:00;;;;;;;1.40;0.63;;;3.20;99.90;;;;;;4990396;28;20183;-71
2022/01/05 00:25:26;;;;;;;1.40;0.63;;;3.20;99.90;;;;;;4997609;28;20317;-71
2022/01/05 00:27:52;;;;;;;1.93;0.67;;;3.20;99.90;;;;;;4996069;28;20237;-71
2022/01/05 00:30:17;;;;;;;2.63;0.53;;;3.10;99.90;;;;;;4999055;28;20727;-71
2022/01/05 00:32:43;;;;;;;1.23;0.60;;;3.10;99.90;;;;;;4995392;28;20319;-72
2022/01/05 00:35:09;;;;;;;1.20;0.50;;;3.20;99.90;;;;;;4999923;28;20191;-71
2022/01/05 00:37:35;;;;;;;2.13;0.70;;;3.20;99.90;;;;;;4995834;28;20521;-71
2022/01/05 00:40:01;;;;;;;1.30;0.50;;;3.20;99.90;;;;;;4993780;28;20225;-71
2022/01/05 00:42:27;;;;;;;1.50;0.53;;;3.20;99.90;;;;;;4991052;28;20434;-71
2022/01/05 00:44:52;;;;;;;1.20;0.47;;;3.20;99.90;;;;;;4990267;28;20518;-71
2022/01/05 00:47:18;;;;;;;1.93;0.53;;;3.20;99.90;;;;;;4990632;28;20746;-71
2022/01/05 00:49:43;;;;;;;1.03;0.40;;;3.20;99.90;;;;;;4990573;28;20180;-71
2022/01/05 00:52:09;;;;;;;1.40;0.67;;;3.20;99.90;;;;;;4991035;28;20537;-71
2022/01/05 00:54:35;;;;;;;1.40;0.50;;;3.20;99.90;;;;;;4991332;28;20223;-71
2022/01/05 00:57:00;;;;;;;1.67;0.40;;;3.20;99.90;;;;;;4991756;28;20211;-71
2022/01/05 00:59:26;;;;;;;1.17;0.53;;;3.20;99.90;;;;;;4992963;28;20547;-71
2022/01/05 01:01:52;;;;;;;1.20;0.50;;;3.20;99.90;;;;;;4992662;28;20323;-73
2022/01/05 01:04:17;;;;;;;1.10;0.40;;;3.20;99.90;;;;;;4991070;28;20188;-72
2022/01/05 01:06:43;;;;;;;1.20;0.50;;;3.30;99.90;;;;;;4993370;28;20188;-71
2022/01/05 01:09:09;;;;;;;1.30;0.50;;;3.30;99.90;;;;;;4995146;28;20192;-71
2022/01/05 01:11:35;;;;;;;2.43;0.70;;;3.30;99.90;;;;;;4992925;28;20237;-71
2022/01/05 01:14:00;;;;;;;1.17;0.50;;;3.30;99.90;;;;;;4995527;28;20299;-71
2022/01/05 01:16:26;;;;;;;1.10;0.40;;;3.30;99.90;;;;;;4992806;28;20391;-71
2022/01/05 01:18:52;;;;;;;1.10;0.50;;;3.30;99.90;;;;;;4997558;28;20599;-71
2022/01/05 01:21:18;;;;;;;1.10;0.50;;;3.30;99.90;;;;;;4993966;28;20199;-71
2022/01/05 01:23:54;;;;;;;1.13;0.50;;;3.40;99.90;;;;;;4998202;28;20191;-71
2022/01/05 01:26:21;;;;;;;1.10;0.50;;;3.40;99.90;;;;;;4995430;28;20210;-71
2022/01/05 01:28:47;;;;;;;1.20;0.60;;;3.40;99.90;;;;;;4994367;28;20470;-71
2022/01/05 01:31:13;;;;;;;2.83;0.63;;;3.40;99.90;;;;;;5001873;28;20426;-72
2022/01/05 01:33:38;;;;;;;3.43;0.60;;;3.40;99.90;;;;;;4999127;28;20324;-71
2022/01/05 01:36:04;;;;;;;1.40;0.50;;;3.40;99.90;;;;;;4988334;28;20505;-71
2022/01/05 01:38:30;;;;;;;1.47;0.60;;;3.40;99.90;;;;;;4989642;28;20670;-71
2022/01/05 01:40:55;;;;;;;1.27;0.50;;;3.40;99.90;;;;;;4989953;28;20195;-71
2022/01/05 01:43:21;;;;;;;1.20;0.50;;;3.40;99.90;;;;;;4989393;28;20192;-71
2022/01/05 01:45:47;;;;;;;1.10;0.40;;;3.50;99.90;;;;;;4990858;28;20312;-71
2022/01/05 01:48:12;;;;;;;1.10;0.43;;;3.50;99.90;;;;;;4989768;28;20280;-71
2022/01/05 01:50:38;;;;;;;1.40;0.60;;;3.50;99.90;;;;;;4990517;28;20195;-71
2022/01/05 01:53:04;;;;;;;3.53;0.83;;;3.50;99.90;;;;;;4990808;28;20223;-71
2022/01/05 01:55:30;;;;;;;1.40;0.50;;;3.50;99.90;;;;;;4992710;28;20413;-71
2022/01/05 01:57:56;;;;;;;1.10;0.50;;;3.50;99.90;;;;;;4992127;28;20219;-71
2022/01/05 02:00:21;;;;;;;1.20;0.50;;;3.50;99.90;;;;;;4993330;28;20470;-71
2022/01/05 02:02:47;;;;;;;1.60;0.50;;;3.50;99.90;;;;;;4991446;28;20569;-71
2022/01/05 02:05:13;;;;;;;1.20;0.50;;;3.60;99.90;;;;;;4989477;28;20266;-71
2022/01/05 02:07:39;;;;;;;1.10;0.50;;;3.60;99.90;;;;;;4994035;28;20295;-72
2022/01/05 02:10:07;;;;;;;1.40;0.50;;;3.60;99.90;;;;;;4993649;28;20509;-71
2022/01/05 02:12:33;;;;;;;1.10;0.40;;;3.60;99.90;;;;;;4994368;28;20442;-71
2022/01/05 02:14:59;;;;;;;1.20;0.50;;;3.60;99.90;;;;;;4994669;28;20426;-71
2022/01/05 02:17:42;;;;;;;1.10;0.50;;;3.60;99.90;;;;;;4996172;28;20437;-71
2022/01/05 02:20:20;;;;;;;1.10;0.50;;;3.60;99.90;;;;;;4992877;28;20412;-72
2022/01/05 02:22:46;;;;;;;1.10;0.40;;;3.70;99.90;;;;;;4998118;28;20426;-71
2022/01/05 02:25:13;;;;;;;1.30;0.50;;;3.70;99.90;;;;;;4994152;28;20423;-71
2022/01/05 02:27:44;;;;;;;1.40;0.50;;;3.70;99.90;;;;;;4987999;28;20426;-71
2022/01/05 02:30:11;;;;;;;1.67;0.50;;;3.70;99.90;;;;;;4981658;28;20502;-71
2022/01/05 02:32:37;;;;;;;1.97;0.60;;;3.70;99.90;;;;;;4987988;28;20652;-72
2022/01/05 02:35:04;;;;;;;1.10;0.50;;;3.70;99.90;;;;;;4988317;28;20960;-72
2022/01/05 02:37:30;;;;;;;1.20;0.50;;;3.70;99.90;;;;;;4989026;28;20188;-71
2022/01/05 02:39:55;;;;;;;1.20;0.50;;;3.70;99.90;;;;;;4991286;28;20450;-72
2022/01/05 02:42:39;;;;;;;1.73;0.80;;;3.70;99.90;;;;;;4989410;28;20768;-71
2022/01/05 02:45:05;;;;;;;1.10;0.50;;;3.70;99.90;;;;;;4983671;28;20743;-72
2022/01/05 02:47:31;;;;;;;1.40;0.50;;;3.70;99.90;;;;;;4991808;28;20508;-73
2022/01/05 02:50:01;;;;;;;1.10;0.40;;;3.70;99.90;;;;;;4990166;28;20548;-71
2022/01/05 02:52:26;;;;;;;1.50;0.80;;;3.80;99.90;;;;;;4992944;28;20212;-71
2022/01/05 02:54:52;;;;;;;1.10;0.40;;;3.80;99.90;;;;;;4990405;28;20447;-71
2022/01/05 02:57:18;;;;;;;1.10;0.40;;;3.70;99.90;;;;;;4992909;28;20936;-71
2022/01/05 02:59:43;;;;;;;1.20;0.50;;;3.70;99.90;;;;;;4991056;28;20652;-71
2022/01/05 03:02:09;;;;;;;1.10;0.40;;;3.70;99.90;;;;;;4993846;28;20191;-71
2022/01/05 03:04:35;;;;;;;1.10;0.50;;;3.70;99.90;;;;;;4988628;28;20299;-71
2022/01/05 03:07:01;;;;;;;1.10;0.40;;;3.80;99.90;;;;;;4995947;28;20226;-71
2022/01/05 03:09:26;;;;;;;1.30;0.50;;;3.70;99.90;;;;;;4991586;28;20183;-71
2022/01/05 03:11:53;;;;;;;1.10;0.40;;;3.70;99.90;;;;;;4997105;28;20195;-71
2022/01/05 03:14:20;;;;;;;1.10;0.43;;;3.70;99.90;;;;;;4995057;28;20238;-71
2022/01/05 03:16:45;;;;;;;1.80;0.53;;;3.70;99.90;;;;;;4992510;28;20884;-71
2022/01/05 03:19:11;;;;;;;1.20;0.50;;;3.60;99.90;;;;;;4986955;28;20423;-71
2022/01/05 03:21:37;;;;;;;1.10;0.40;;;3.60;99.90;;;;;;4987469;28;20558;-71
2022/01/05 03:24:03;;;;;;;1.10;0.40;;;3.60;99.90;;;;;;4987805;28;20271;-71
2022/01/05 03:26:28;;;;;;;1.10;0.40;;;3.60;99.90;;;;;;4988320;28;20256;-71
2022/01/05 03:28:54;;;;;;;1.10;0.40;;;3.60;99.90;;;;;;4987247;28;20659;-71
2022/01/05 03:31:19;;;;;;;1.40;0.60;;;3.50;99.90;;;;;;4989209;28;20191;-71
2022/01/05 03:33:45;;;;;;;1.23;0.50;;;3.50;99.90;;;;;;4988442;28;20562;-70
2022/01/05 03:36:11;;;;;;;1.20;0.50;;;3.50;99.90;;;;;;4991288;28;20180;-71
2022/01/05 03:38:36;;;;;;;1.10;0.40;;;3.50;99.90;;;;;;4991570;28;20658;-71
2022/01/05 03:41:02;;;;;;;1.10;0.40;;;3.50;99.90;;;;;;4992439;28;20187;-71
2022/01/05 03:43:28;;;;;;;2.27;0.50;;;3.50;99.90;;;;;;4989895;28;20195;-71
2022/01/05 03:45:54;;;;;;;1.97;0.40;;;3.50;99.90;;;;;;4993028;28;20191;-71
2022/01/05 03:48:20;;;;;;;1.10;0.50;;;3.40;99.90;;;;;;4990557;28;20266;-71
2022/01/05 03:50:46;;;;;;;1.10;0.50;;;3.40;99.90;;;;;;4994342;28;20445;-71
2022/01/05 03:53:12;;;;;;;2.03;1.13;;;3.40;99.90;;;;;;4991370;28;20521;-71
2022/01/05 03:55:40;;;;;;;1.27;0.50;;;3.40;99.90;;;;;;4990525;28;20427;-71
2022/01/05 03:58:06;;;;;;;1.10;0.50;;;3.40;99.90;;;;;;4991655;28;20507;-71
2022/01/05 04:00:37;;;;;;;2.33;0.53;;;3.40;99.90;;;;;;4993422;28;20453;-70
2022/01/05 04:03:02;;;;;;;1.10;0.43;;;3.40;99.90;;;;;;4992593;28;20426;-71
2022/01/05 04:05:28;;;;;;;1.10;0.40;;;3.40;99.90;;;;;;4989565;28;20441;-71
2022/01/05 04:07:58;;;;;;;1.30;0.53;;;3.40;99.90;;;;;;4993597;28;20282;-71
2022/01/05 04:10:24;;;;;;;1.20;0.50;;;3.40;99.90;;;;;;4996449;28;20938;-71
2022/01/05 04:12:50;;;;;;;1.10;0.50;;;3.40;99.90;;;;;;4993433;28;20517;-71
2022/01/05 04:15:17;;;;;;;1.10;0.40;;;3.40;99.90;;;;;;4989005;28;20525;-71
2022/01/05 04:17:43;;;;;;;1.10;0.40;;;3.30;99.90;;;;;;4989959;28;20426;-71
2022/01/05 04:20:10;;;;;;;1.10;0.40;;;3.30;99.90;;;;;;4991213;28;20778;-71
2022/01/05 04:22:35;;;;;;;1.10;0.40;;;3.30;99.90;;;;;;4990569;28;20641;-71
2022/01/05 04:25:01;;;;;;;1.10;0.40;;;3.30;99.90;;;;;;4991989;28;20530;-70
2022/01/05 04:27:27;;;;;;;1.00;0.40;;;3.20;99.90;;;;;;4991439;28;20284;-71
2022/01/05 04:29:53;;;;;;;1.10;0.40;;;3.20;99.90;;;;;;4992634;28;20687;-70
2022/01/05 04:32:18;;;;;;;1.10;0.40;;;3.20;99.90;;;;;;4991373;28;20651;-70
2022/01/05 04:34:44;;;;;;;1.10;0.40;;;3.20;99.90;;;;;;4993980;28;20218;-70
2022/01/05 04:37:10;;;;;;;1.10;0.40;;;3.10;99.90;;;;;;4992205;28;20688;-70
2022/01/05 04:39:36;;;;;;;1.10;0.40;;;3.10;99.90;;;;;;4998111;28;20186;-70
2022/01/05 04:42:02;;;;;;;1.10;0.40;;;3.10;99.90;;;;;;4992705;28;20422;-71
2022/01/05 04:44:28;;;;;;;1.10;0.40;;;3.10;99.90;;;;;;4996170;28;20462;-71
2022/01/05 04:46:53;;;;;;;1.10;0.40;;;3.10;99.90;;;;;;4991906;28;20952;-71
2022/01/05 04:49:19;;;;;;;1.23;0.40;;;3.10;99.90;;;;;;4997670;28;20246;-71
2022/01/05 04:51:45;;;;;;;1.10;0.40;;;3.00;99.90;;;;;;4998921;28;20729;-71
2022/01/05 04:54:10;;;;;;;1.10;0.40;;;3.10;99.90;;;;;;4997701;28;20277;-71
2022/01/05 04:56:36;;;;;;;1.10;0.40;;;3.10;99.90;;;;;;4993763;28;20192;-71
2022/01/05 04:59:02;;;;;;;1.10;0.50;;;3.00;99.90;;;;;;4997002;28;20294;-71
2022/01/05 05:01:28;;;;;;;1.10;0.40;;;2.90;99.90;;;;;;4995262;28;20559;-71
2022/01/05 05:03:53;;;;;;;1.10;0.40;;;2.90;99.90;;;;;;4997630;28;20178;-71
2022/01/05 05:06:19;;;;;;;1.30;0.50;;;2.80;99.90;;;;;;5000354;28;20234;-71
2022/01/05 05:08:45;;;;;;;1.10;0.40;;;2.80;99.90;;;;;;4982724;28;20614;-72
2022/01/05 05:11:10;;;;;;;1.10;0.50;;;2.80;99.90;;;;;;4989353;28;20196;-72
2022/01/05 05:13:36;;;;;;;1.10;0.40;;;2.70;99.90;;;;;;4990022;28;20242;-71
2022/01/05 05:16:02;;;;;;;1.10;0.50;;;2.70;99.90;;;;;;4989804;28;20553;-72
2022/01/05 05:18:27;;;;;;;1.30;0.50;;;2.70;99.90;;;;;;4990138;28;20191;-72
2022/01/05 05:20:53;;;;;;;1.10;0.40;;;2.70;99.90;;;;;;4990272;28;20210;-71
2022/01/05 05:23:19;;;;;;;1.10;0.50;;;2.70;99.90;;;;;;4991892;28;20187;-71
2022/01/05 05:25:44;;;;;;;1.27;0.60;;;2.80;99.90;;;;;;4990146;28;20662;-71
2022/01/05 05:28:10;;;;;;;1.10;0.50;;;2.80;99.90;;;;;;4992599;28;20195;-71
2022/01/05 05:30:36;;;;;;;3.37;0.57;;;2.90;99.90;;;;;;4991073;28;20617;-72
2022/01/05 05:33:03;;;;;;;1.10;0.40;;;2.90;99.90;;;;;;4993292;28;20207;-72
2022/01/05 05:35:29;;;;;;;1.10;0.40;;;2.90;99.90;;;;;;4991196;28;20184;-72
2022/01/05 05:37:56;;;;;;;1.30;0.57;;;3.00;99.90;;;;;;4995618;28;20425;-72
2022/01/05 05:40:21;;;;;;;1.23;0.50;;;3.00;99.90;;;;;;4994172;28;20422;-71
2022/01/05 05:42:48;;;;;;;1.20;0.70;;;3.00;99.90;;;;;;4995004;28;20437;-72
2022/01/05 05:45:14;;;;;;;2.47;0.60;;;3.10;99.90;;;;;;4992286;28;20519;-71
2022/01/05 05:47:39;;;;;;;4.83;0.60;;;3.10;99.90;;;;;;4995941;28;20430;-71
2022/01/05 05:50:06;;;;;;;1.23;0.50;;;3.10;99.90;;;;;;4993549;28;20188;-71
2022/01/05 05:52:31;;;;;;;1.30;0.57;;;3.00;99.90;;;;;;4996018;28;20639;-71
2022/01/05 05:54:58;;;;;;;1.20;0.60;;;3.00;99.90;;;;;;4994562;28;20427;-72
2022/01/05 05:57:24;;;;;;;1.20;0.63;;;3.00;99.90;;;;;;4996954;28;20186;-71
2022/01/05 05:59:49;;;;;;;1.57;0.47;;;3.00;99.90;;;;;;4995460;28;20419;-71
2022/01/05 06:02:15;;;;;;;1.20;0.50;;;2.80;99.90;;;;;;4996941;28;20910;-71
2022/01/05 06:04:41;;;;;;;1.30;0.53;;;2.50;99.90;;;;;;4997874;28;20198;-72
2022/01/05 06:07:07;;;;;;;1.30;0.60;;;2.20;99.90;;;;;;4994085;28;20262;-71
2022/01/05 06:09:32;;;;;;;1.20;0.50;;;2.00;99.90;;;;;;4988405;28;20572;-71
2022/01/05 06:11:58;;;;;;;2.00;0.63;;;1.80;99.90;;;;;;4989473;28;20271;-72
2022/01/05 06:14:23;;;;;;;1.20;0.50;;;1.70;99.90;;;;;;4989590;28;20222;-72
2022/01/05 06:16:49;;;;;;;1.93;0.60;;;1.60;99.90;;;;;;4990062;28;20187;-72
2022/01/05 06:19:15;;;;;;;1.20;0.50;;;1.60;99.90;;;;;;4989947;28;20187;-72
2022/01/05 06:21:40;;;;;;;1.50;0.50;;;1.60;99.90;;;;;;4992591;28;20179;-72
2022/01/05 06:24:06;;;;;;;1.10;0.47;;;1.70;99.90;;;;;;4990607;28;20184;-72
2022/01/05 06:26:32;;;;;;;1.10;0.40;;;1.60;99.90;;;;;;4993392;28;20204;-71
2022/01/05 06:28:58;;;;;;;1.53;0.67;;;1.50;99.90;;;;;;4992509;28;20513;-71
2022/01/05 06:31:23;;;;;;;1.20;0.60;;;1.60;99.90;;;;;;4995308;28;20294;-72
2022/01/05 06:33:49;;;;;;;1.63;0.80;;;1.50;99.90;;;;;;4983067;28;20307;-69
2022/01/05 06:36:14;;;;;;;3.37;1.77;;;1.60;99.90;;;;;;4994716;28;20659;-70
2022/01/05 06:38:40;;;;;;;1.93;1.00;;;1.60;99.90;;;;;;4996113;28;20191;-69
2022/01/05 06:41:06;;;;;;;3.30;0.83;;;1.60;99.90;;;;;;4996112;28;20270;-72
2022/01/05 06:43:31;;;;;;;3.27;0.80;;;1.60;99.90;;;;;;4992786;28;20202;-72
2022/01/05 06:45:58;;;;;;;2.53;1.30;;;1.60;99.90;;;;;;4994833;28;20195;-72
2022/01/05 06:48:24;;;;;;;2.43;1.47;;;1.60;99.90;;;;;;4993595;28;20381;-72
2022/01/05 06:50:49;;;;;;;7.70;2.23;;;1.60;99.90;;;;;;4995613;28;20604;-72
2022/01/05 06:53:15;;;;;;;2.63;1.40;;;1.70;99.90;;;;;;4995434;28;20227;-73
2022/01/05 06:55:41;;;;;;;2.93;1.23;;;1.80;99.90;;;;;;4995503;28;20541;-73
2022/01/05 06:58:06;;;;;;;2.20;1.00;;;1.90;99.90;;;;;;4989953;28;20422;-72
2022/01/05 07:00:33;;;;;;;1.50;0.83;;;1.90;99.90;;;;;;4987359;28;20207;-73
2022/01/05 07:02:59;;;;;;;1.67;0.90;;;2.00;99.90;;;;;;4987011;28;20195;-72
2022/01/05 07:05:25;;;;;;;1.30;0.60;;;2.00;99.90;;;;;;4992945;28;20440;-71
2022/01/05 07:07:51;;;;;;;1.93;0.80;;;2.00;99.90;;;;;;4992145;28;20554;-71
2022/01/05 07:10:17;;;;;;;1.30;0.60;;;2.00;99.90;;;;;;4990504;28;20452;-71
2022/01/05 07:12:43;;;;;;;1.20;0.53;;;2.00;99.90;;;;;;4988724;28;20642;-71
2022/01/05 07:15:10;;;;;;;1.40;0.83;;;1.90;99.90;;;;;;4990956;28;20856;-71
2022/01/05 07:17:37;;;;;;;1.77;0.90;;;1.90;99.90;;;;;;4987533;28;20526;-71
2022/01/05 07:20:04;;;;;;;3.30;1.67;;;1.80;99.90;;;;;;4998604;28;20847;-72
2022/01/05 07:22:30;;;;;;;1.40;0.80;;;1.80;99.90;;;;;;4992793;28;20426;-73
2022/01/05 07:24:56;;;;;;;1.30;0.50;;;1.80;99.90;;;;;;4991066;28;20897;-73
2022/01/05 07:27:23;;;;;;;1.20;0.60;;;1.80;99.90;;;;;;4991090;28;20423;-72
2022/01/05 07:29:49;;;;;;;2.53;1.23;;;1.80;99.90;;;;;;4995485;28;20230;-72
2022/01/05 07:32:15;;;;;;;2.97;1.20;;;1.70;99.90;;;;;;4990679;28;20454;-72
2022/01/05 07:34:40;;;;;;;1.60;0.77;;;1.70;99.90;;;;;;4995116;28;20941;-72
2022/01/05 07:37:06;;;;;;;2.40;0.97;;;1.80;99.90;;;;;;4992207;28;20583;-72
2022/01/05 07:39:32;;;;;;;1.73;1.03;;;1.70;99.90;;;;;;5001136;28;20628;-73
2022/01/05 07:41:58;;;;;;;7.07;1.30;;;1.70;99.90;;;;;;4993831;28;20222;-72
2022/01/05 07:44:23;;;;;;;1.60;0.90;;;1.70;99.90;;;;;;4995744;28;20549;-70
2022/01/05 07:46:49;;;;;;;2.70;1.10;;;1.60;99.90;;;;;;4993628;28;20262;-70
2022/01/05 07:49:15;;;;;;;2.20;0.80;;;1.60;99.90;;;;;;4997452;28;20194;-70
2022/01/05 07:51:41;;;;;;;1.20;0.67;;;1.50;99.90;;;;;;4992960;28;20637;-70
2022/01/05 07:54:06;;;;;;;3.27;1.20;;;1.60;99.90;;;;;;4990308;28;20499;-70
2022/01/05 07:56:32;;;;;;;2.30;0.80;;;1.50;99.90;;;;;;4990420;28;20194;-70
2022/01/05 07:58:58;;;;;;;1.43;0.70;;;1.50;99.90;;;;;;4991850;28;20202;-70
2022/01/05 08:01:24;;;;;;;1.43;0.80;;;1.50;99.90;;;;;;4991187;28;20952;-70
2022/01/05 08:03:50;;;;;;;2.60;1.20;;;1.50;99.90;;;;;;4991868;28;20219;-71
2022/01/05 08:06:17;;;;;;;1.63;0.80;;;1.50;99.90;;;;;;5000406;28;20533;-71
2022/01/05 08:08:44;;;;;;;4.97;2.27;;;1.50;99.90;;;;;;4989916;28;20471;-71
2022/01/05 08:11:10;;;;;;;6.00;1.03;;;1.40;99.90;;;;;;4991796;28;20770;-70
2022/01/05 08:13:36;;;;;;;2.27;1.00;;;1.40;99.90;;;;;;4996056;28;20462;-70
2022/01/05 08:16:02;;;;;;;4.30;1.27;;;1.40;99.90;;;;;;4992707;28;20537;-70
2022/01/05 08:18:29;;;;;;;4.60;1.27;;;1.30;99.90;;;;;;4997801;28;20191;-70
2022/01/05 08:20:55;;;;;;;2.47;1.03;;;1.30;99.90;;;;;;4993958;28;20419;-71
2022/01/05 08:23:22;;;;;;;3.73;1.40;;;1.30;99.90;;;;;;4994784;28;20583;-71
2022/01/05 08:25:49;;;;;;;2.87;1.00;;;1.40;99.90;;;;;;4986237;28;20187;-70
2022/01/05 08:28:16;;;;;;;4.50;1.60;;;1.30;99.90;;;;;;4997995;28;20891;-70
2022/01/05 08:30:44;;;;;;;1.77;1.03;;;1.30;99.90;;;;;;4993979;28;20446;-70
2022/01/05 08:33:10;;;;;;;1.60;0.90;;;1.30;99.90;;;;;;5000076;28;20934;-70
2022/01/05 08:35:36;;;;;;;39.43;14.37;;;1.40;99.90;;;;;;4995604;28;20822;-70
2022/01/05 08:38:03;;;;;;;12.63;2.00;;;1.40;99.90;;;;;;5000487;28;20798;-70
2022/01/05 08:40:31;;;;;;;2.63;1.33;;;1.30;99.90;;;;;;4984192;28;20431;-70
2022/01/05 08:42:57;;;;;;;7.97;1.50;;;1.30;99.90;;;;;;4988918;28;20443;-70
2022/01/05 08:45:23;;;;;;;1.50;0.80;;;1.30;99.90;;;;;;4989385;28;20558;-70
2022/01/05 08:47:51;;;;;;;3.57;1.47;;;1.20;99.90;;;;;;4990956;28;20434;-70
2022/01/05 08:50:27;;;;;;;4.00;0.77;;;1.10;99.90;;;;;;4990683;28;20422;-70
2022/01/05 08:52:54;;;;;;;3.27;0.90;;;1.10;99.90;;;;;;4988448;28;20580;-69
2022/01/05 08:55:22;;;;;;;3.53;1.57;;;1.10;99.90;;;;;;4991697;28;20962;-70
2022/01/05 08:57:48;;;;;;;2.93;1.10;;;1.10;99.90;;;;;;4993661;28;20975;-70
2022/01/05 09:00:15;;;;;;;1.80;0.87;;;1.10;99.90;;;;;;4993111;28;20876;-70
2022/01/05 09:02:41;;;;;;;3.93;0.80;;;1.30;99.90;;;;;;4998277;28;20898;-70
2022/01/05 09:05:07;;;;;;;1.90;0.97;;;1.40;99.90;;;;;;4991909;28;21124;-69
2022/01/05 09:07:33;;;;;;;1.47;0.80;;;1.50;99.90;;;;;;4989750;28;20467;-70
2022/01/05 09:09:59;;;;;;;7.97;1.30;;;1.60;99.90;;;;;;4982248;28;20440;-69
2022/01/05 09:12:25;;;;;;;2.13;1.13;;;1.60;99.90;;;;;;4981724;28;20446;-69
2022/01/05 09:14:51;;;;;;;3.13;0.90;;;1.50;99.90;;;;;;4982640;28;20223;-69
2022/01/05 09:17:16;;;;;;;4.27;1.47;;;1.40;99.90;;;;;;4979608;28;20777;-69
2022/01/05 09:19:42;;;;;;;1.70;0.70;;;1.40;99.90;;;;;;4976959;28;20574;-69
2022/01/05 09:22:09;;;;;;;9.87;0.77;;;1.20;99.90;;;;;;4989989;28;20430;-69
2022/01/05 09:24:36;;;;;;;2.43;1.20;;;1.20;99.90;;;;;;4975784;28;20215;-69
2022/01/05 09:27:04;;;;;;;3.30;1.70;;;1.30;99.90;;;;;;4973033;28;20462;-69
2022/01/05 09:29:31;;;;;;;7.00;2.37;;;1.40;99.90;;;;;;4990593;28;20572;-69
2022/01/05 09:31:58;;;;;;;5.33;1.20;;;1.30;99.90;;;;;;4997005;28;20466;-69
2022/01/05 09:34:24;;;;;;;2.27;1.10;;;1.30;99.90;;;;;;4995180;28;20581;-69
2022/01/05 09:36:57;;;;;;;1.50;0.67;;;1.40;99.90;;;;;;4985202;28;20506;-69
2022/01/05 09:42:07;;;;;;;4.33;1.00;;;1.50;99.90;;;;;;4988679;28;20783;-69
2022/01/05 09:44:38;;;;;;;4.63;1.37;;;1.40;99.90;;;;;;4989714;28;20426;-69
2022/01/05 09:47:15;;;;;;;9.37;2.00;;;1.40;99.90;;;;;;4987608;28;20656;-69
2022/01/05 09:50:00;;;;;;;3.87;1.30;;;1.50;99.80;;;;;;4998094;28;20553;-69
2022/01/05 09:52:26;;;;;;;4.30;1.20;;;1.50;99.90;;;;;;4988900;28;20418;-68
2022/01/05 09:54:53;;;;;;;6.40;0.90;;;1.40;99.90;;;;;;4989385;28;20532;-69
2022/01/05 09:57:21;;;;;;;1.30;0.60;;;1.30;99.90;;;;;;4992134;28;20457;-68
2022/01/05 09:59:47;;;;;;;2.27;1.10;;;1.20;99.10;;;;;;4990791;28;20746;-69
2022/01/05 10:02:14;;;;;;;2.23;0.93;;;1.20;99.90;;;;;;4992843;28;20437;-68
2022/01/05 10:04:40;;;;;;;7.43;1.87;;;1.20;98.50;;;;;;4988182;28;20439;-68
2022/01/05 10:07:09;;;;;;;7.50;1.50;;;1.30;98.50;;;;;;4993994;28;20426;-68
2022/01/05 10:09:40;;;;;;;1.97;0.80;;;1.40;98.70;;;;;;4991622;28;20430;-68
2022/01/05 10:12:07;;;;;;;3.43;1.50;;;1.60;98.70;;;;;;4994999;28;20827;-68
2022/01/05 10:14:33;;;;;;;10.87;4.30;;;1.60;99.40;;;;;;4991570;28;20462;-69
2022/01/05 10:17:03;;;;;;;7.17;3.20;;;1.60;99.90;;;;;;4995926;28;20425;-69
2022/01/05 10:19:28;;;;;;;6.30;1.73;;;1.60;99.20;;;;;;4993127;28;20428;-68
2022/01/05 10:21:56;;;;;;;3.17;1.20;;;1.70;99.20;;;;;;4998301;28;20428;-67
2022/01/05 10:24:42;;;;;;;10.50;2.23;;;1.60;98.50;;;;;;4993439;28;20219;-68
2022/01/05 10:27:08;;;;;;;6.10;1.43;;;1.50;98.20;;;;;;4993314;28;20563;-68
2022/01/05 10:29:34;;;;;;;5.77;1.40;;;1.50;98.60;;;;;;4993893;28;20519;-68
2022/01/05 10:32:01;;;;;;;3.43;1.30;;;1.50;98.80;;;;;;4987613;28;20446;-68
2022/01/05 10:34:32;;;;;;;2.10;1.00;;;1.50;98.50;;;;;;4988510;28;20482;-68
2022/01/05 10:37:05;;;;;;;5.97;1.40;;;1.40;97.40;;;;;;4988712;28;20461;-69
2022/01/05 10:39:35;;;;;;;4.13;1.00;;;1.60;98.00;;;;;;4988053;28;20499;-68
2022/01/05 10:42:08;;;;;;;3.20;0.90;;;1.70;96.70;;;;;;4991852;28;20427;-68
2022/01/05 10:44:34;;;;;;;5.00;0.90;;;1.90;97.00;;;;;;4991292;28;20756;-69
2022/01/05 10:47:01;;;;;;;12.63;1.87;;;2.20;97.00;;;;;;4988780;28;20426;-69
2022/01/05 10:49:32;;;;;;;3.47;1.23;;;2.30;97.00;;;;;;4992393;28;20195;-69
2022/01/05 10:52:19;;;;;;;9.23;2.07;;;2.50;97.00;;;;;;4989755;28;20470;-68
2022/01/05 10:54:45;;;;;;;3.20;0.97;;;2.30;95.30;;;;;;4990469;28;20667;-68
2022/01/05 10:57:13;;;;;;;5.50;1.63;;;2.40;95.40;;;;;;4992392;28;20506;-69
2022/01/05 10:59:42;;;;;;;1.87;1.03;;;2.50;95.10;;;;;;4990945;28;20190;-69
2022/01/05 11:02:28;;;;;;;1.70;0.97;;;2.40;94.70;;;;;;4993775;28;20745;-68
2022/01/05 11:05:13;;;;;;;2.03;1.03;;;2.40;95.00;;;;;;4988318;28;20541;-68
2022/01/05 11:07:40;;;;;;;7.90;1.20;;;2.30;94.80;;;;;;4989161;28;20426;-67
2022/01/05 11:10:18;;;;;;;1.20;0.57;;;2.30;95.30;;;;;;4993590;28;20852;-68
2022/01/05 11:12:51;;;;;;;5.53;1.17;;;2.20;94.50;;;;;;4993029;28;20422;-67
2022/01/05 11:15:34;;;;;;;8.57;1.10;;;2.30;95.60;;;;;;4991629;28;20457;-68
2022/01/05 11:18:18;;;;;;;6.27;1.30;;;2.40;95.60;;;;;;4986776;28;20430;-68
2022/01/05 11:20:52;;;;;;;3.57;1.20;;;2.20;95.10;;;;;;4992662;28;20538;-67
2022/01/05 11:23:22;;;;;;;8.93;1.10;;;2.20;95.20;;;;;;4997221;28;20757;-67
2022/01/05 11:25:49;;;;;;;4.97;1.27;;;2.30;95.20;;;;;;4998494;28;20423;-68
2022/01/05 11:28:19;;;;;;;19.30;3.20;;;2.40;95.80;;;;;;4995966;28;20907;-68
2022/01/05 11:30:46;;;;;;;3.13;1.30;;;2.50;96.60;;;;;;4991651;28;20434;-69
2022/01/05 11:33:12;;;;;;;8.30;1.40;;;2.70;95.10;;;;;;4991745;28;20505;-67
2022/01/05 11:35:39;;;;;;;1.83;0.93;;;2.70;94.10;;;;;;4990444;28;20470;-68
2022/01/05 11:38:05;;;;;;;3.50;1.03;;;2.80;95.30;;;;;;4992949;28;20423;-68
2022/01/05 11:40:33;;;;;;;12.53;1.50;;;2.80;96.10;;;;;;4993779;28;20510;-69
2022/01/05 11:43:07;;;;;;;3.93;1.30;;;3.00;94.20;;;;;;4994693;28;20477;-70
2022/01/05 11:45:45;;;;;;;6.40;1.93;;;3.10;95.10;;;;;;4993428;28;20418;-69
2022/01/05 11:48:20;;;;;;;22.00;3.20;;;3.00;95.50;;;;;;4992403;28;20438;-70
2022/01/05 11:50:48;;;;;;;2.53;1.10;;;3.00;95.10;;;;;;4995917;28;20504;-70
2022/01/05 11:53:17;;;;;;;3.67;1.60;;;2.80;94.30;;;;;;4987369;28;20467;-70
2022/01/05 11:55:58;;;;;;;5.57;0.93;;;2.80;94.30;;;;;;4996439;28;20433;-70
2022/01/05 11:58:26;;;;;;;10.97;1.53;;;2.90;94.90;;;;;;4989591;28;20964;-70
2022/01/05 12:01:16;;;;;;;5.83;1.13;;;3.10;95.00;;;;;;4998631;28;20449;-69
2022/01/05 12:03:56;;;;;;;4.33;1.43;;;3.10;96.10;;;;;;4994806;28;20934;-70
2022/01/05 12:06:23;;;;;;;3.90;1.53;;;3.10;94.70;;;;;;4994797;28;20508;-70
2022/01/05 12:08:51;;;;;;;7.80;1.70;;;3.10;95.10;;;;;;4999514;28;20448;-70
2022/01/05 12:11:34;;;;;;;3.03;1.10;;;3.10;95.10;;;;;;4996033;28;20953;-70
2022/01/05 12:14:02;;;;;;;3.47;1.23;;;3.10;96.30;;;;;;4995802;28;20461;-69
2022/01/05 12:16:28;;;;;;;2.80;0.93;;;3.10;94.60;;;;;;4994999;28;20907;-70
2022/01/05 12:19:14;;;;;;;24.03;1.33;;;3.00;94.60;;;;;;4996872;28;20612;-68
2022/01/05 12:21:59;;;;;;;7.77;1.80;;;2.90;94.90;;;;;;4990225;28;20426;-67
2022/01/05 12:25:04;;;;;;;2.80;1.00;;;2.90;94.30;;;;;;4990029;28;20473;-67
2022/01/05 12:27:37;;;;;;;2.60;0.90;;;2.70;94.00;;;;;;4988311;28;20419;-67
2022/01/05 12:30:23;;;;;;;3.10;1.10;;;2.40;94.60;;;;;;4991517;28;20477;-67
2022/01/05 12:33:03;;;;;;;3.83;1.43;;;2.10;94.60;;;;;;4991607;28;20438;-68
2022/01/05 12:35:46;;;;;;;5.03;1.57;;;2.10;94.70;;;;;;4989766;28;20480;-68
2022/01/05 12:38:29;;;;;;;21.37;1.63;;;1.90;95.80;;;;;;4992754;28;20822;-68
2022/01/05 12:40:54;;;;;;;2.90;1.03;;;1.80;95.80;;;;;;4991984;28;20427;-67
2022/01/05 12:43:20;;;;;;;3.33;1.00;;;1.80;95.70;;;;;;4992804;28;20517;-69
2022/01/05 12:45:49;;;;;;;5.27;1.63;;;1.80;96.50;;;;;;4993101;28;20492;-68
2022/01/05 12:48:31;;;;;;;5.30;1.50;;;1.70;96.10;;;;;;4991495;28;20184;-68
2022/01/05 12:51:14;;;;;;;9.40;1.53;;;1.70;95.50;;;;;;4995739;28;21037;-67
2022/01/05 12:54:03;;;;;;;2.70;1.00;;;1.50;95.40;;;;;;4993204;28;20463;-68
2022/01/05 12:56:33;;;;;;;7.57;1.40;;;1.50;95.90;;;;;;4992746;28;20469;-68
2022/01/05 12:59:00;;;;;;;9.23;1.50;;;1.50;96.10;;;;;;4996265;28;20828;-68
2022/01/05 13:01:28;;;;;;;2.77;1.07;;;1.40;96.00;;;;;;4993799;28;20439;-68
2022/01/05 13:03:55;;;;;;;2.13;0.87;;;1.40;96.60;;;;;;4997325;28;20422;-67